Time;durP1;ratioP1;P1;durP2;ratioP2;P2;SDS_P1;SDS_P2;PMS_P1;PMS_P2;Temp;Humidity;BMP_temperature;BMP_pressure;BME280_temperature;BME280_humidity;BME280_pressure;Samples;Min_cycle;Max_cycle;Signal;HPM_P1;HPM_P2
2023/10/15 00:00:15;;;;;;;;;;;7.60;99.90;;;;;;5062989;28;19920;-91
2023/10/15 00:02:44;;;;;;;;;;;7.60;99.90;;;;;;5040051;28;19924;-92
2023/10/15 00:05:10;;;;;;;;;;;7.60;99.90;;;;;;5031513;28;19966;-92
2023/10/15 00:07:36;;;;;;;;;;;7.50;99.90;;;;;;5040674;28;19916;-94
2023/10/15 00:10:01;;;;;;;;;;;7.50;99.90;;;;;;5005047;28;19916;-95
2023/10/15 00:12:27;;;;;;;;;;;7.40;99.90;;;;;;5021048;28;19916;-96
2023/10/15 00:14:53;;;;;;;;;;;7.40;99.90;;;;;;5025271;28;20235;-94
2023/10/15 00:17:18;;;;;;;;;;;7.30;99.90;;;;;;5037469;28;19916;-95
2023/10/15 00:19:44;;;;;;;;;;;7.30;99.90;;;;;;5021800;28;20271;-96
2023/10/15 00:22:09;;;;;;;;;;;7.30;99.90;;;;;;5005382;28;20414;-95
2023/10/15 00:24:37;;;;;;;;;;;7.20;99.90;;;;;;5022693;28;19917;-96
2023/10/15 00:27:03;;;;;;;;;;;7.10;99.90;;;;;;5006536;28;19917;-94
2023/10/15 00:29:29;;;;;;;;;;;7.10;99.90;;;;;;5005860;28;19999;-96
2023/10/15 00:31:54;;;;;;;;;;;7.10;99.90;;;;;;5005998;28;19928;-96
2023/10/15 00:34:20;;;;;;;;;;;7.00;99.90;;;;;;5005935;28;19921;-96
2023/10/15 00:36:48;;;;;;;;;;;7.00;99.90;;;;;;5006550;28;19917;-95
2023/10/15 00:39:23;;;;;;;;;;;7.00;99.90;;;;;;5006172;28;20027;-95
2023/10/15 00:41:49;;;;;;;;;;;7.00;99.90;;;;;;5022542;28;19923;-95
2023/10/15 00:44:15;;;;;;;;;;;7.00;99.90;;;;;;5021780;28;19917;-95
2023/10/15 00:46:41;;;;;;;;;;;7.00;99.90;;;;;;5005642;28;19916;-95
2023/10/15 00:49:14;;;;;;;;;;;7.00;99.90;;;;;;5005523;28;20411;-96
2023/10/15 00:51:41;;;;;;;;;;;7.00;99.90;;;;;;5021619;28;19978;-94
2023/10/15 00:54:10;;;;;;;;;;;6.90;99.90;;;;;;5021795;28;19917;-95
2023/10/15 00:56:37;;;;;;;;;;;6.90;99.90;;;;;;5021569;28;19967;-95
2023/10/15 01:01:35;;;;;;;;;;;6.90;99.90;;;;;;5022287;28;19917;-95
2023/10/15 01:04:06;;;;;;;;;;;6.90;99.90;;;;;;5026209;28;19928;-93
2023/10/15 01:06:35;;;;;;;;;;;6.90;99.90;;;;;;5039627;28;19992;-91
2023/10/15 01:11:58;;;;;;;;;;;7.00;99.90;;;;;;5055770;28;19917;-91
2023/10/15 01:14:36;;;;;;;;;;;7.30;99.90;;;;;;5048400;28;20370;-90
2023/10/15 01:17:01;;;;;;;;;;;7.40;99.90;;;;;;5014729;28;19969;-91
2023/10/15 01:19:33;;;;;;;;;;;7.50;99.90;;;;;;5040496;28;20322;-92
2023/10/15 01:22:02;;;;;;;;;;;7.50;99.90;;;;;;5024830;28;19995;-91
2023/10/15 01:24:28;;;;;;;;;;;7.50;99.90;;;;;;5019612;28;19920;-90
2023/10/15 01:27:05;;;;;;;;;;;7.50;99.90;;;;;;5019660;28;19916;-90
2023/10/15 01:29:34;;;;;;;;;;;7.50;99.90;;;;;;5007728;28;19916;-90
2023/10/15 01:32:03;;;;;;;;;;;7.50;99.90;;;;;;5022838;28;20050;-91
2023/10/15 01:34:31;;;;;;;;;;;7.50;99.90;;;;;;5025300;28;19916;-92
2023/10/15 01:36:57;;;;;;;;;;;7.50;99.90;;;;;;5019758;28;19974;-93
2023/10/15 01:39:32;;;;;;;;;;;7.50;99.90;;;;;;5020113;28;19920;-94
2023/10/15 01:42:03;;;;;;;;;;;7.50;99.90;;;;;;5020059;28;19963;-92
2023/10/15 01:44:30;;;;;;;;;;;7.50;99.90;;;;;;5020292;28;19947;-92
2023/10/15 01:49:31;;;;;;;;;;;7.50;99.90;;;;;;5019610;28;19931;-92
2023/10/15 01:52:06;;;;;;;;;;;7.50;99.90;;;;;;5016111;28;19995;-93
2023/10/15 01:54:32;;;;;;;;;;;7.50;99.90;;;;;;5036084;28;19924;-96
2023/10/15 01:56:59;;;;;;;;;;;7.60;99.90;;;;;;5024232;28;20411;-96
2023/10/15 01:59:26;;;;;;;;;;;7.50;99.90;;;;;;5019860;28;19921;-94
2023/10/15 02:01:52;;;;;;;;;;;7.50;99.90;;;;;;5005205;28;19940;-93
2023/10/15 02:04:25;;;;;;;;;;;7.50;99.90;;;;;;5001300;28;19917;-92
2023/10/15 02:06:51;;;;;;;;;;;7.50;99.90;;;;;;5017695;28;19970;-94
2023/10/15 02:09:21;;;;;;;;;;;7.50;99.90;;;;;;5019178;28;19921;-94
2023/10/15 02:11:53;;;;;;;;;;;7.40;99.90;;;;;;5021723;28;19924;-95
2023/10/15 02:14:27;;;;;;;;;;;7.40;99.90;;;;;;5004247;28;19963;-95
2023/10/15 02:16:53;;;;;;;;;;;7.30;99.90;;;;;;5015742;28;19924;-95
2023/10/15 02:19:35;;;;;;;;;;;7.30;99.90;;;;;;5037317;28;19927;-94
2023/10/15 02:22:01;;;;;;;;;;;7.30;99.90;;;;;;5013607;28;19941;-95
2023/10/15 02:24:32;;;;;;;;;;;7.20;99.90;;;;;;5003480;28;19987;-95
2023/10/15 02:26:58;;;;;;;;;;;7.10;99.90;;;;;;5018997;28;19923;-96
2023/10/15 02:32:08;;;;;;;;;;;7.10;99.90;;;;;;5016819;28;20332;-95
2023/10/15 02:34:40;;;;;;;;;;;7.00;99.90;;;;;;4999713;28;19917;-95
2023/10/15 02:37:10;;;;;;;;;;;6.90;99.90;;;;;;4984288;28;19923;-96
2023/10/15 02:39:39;;;;;;;;;;;6.80;99.90;;;;;;4999750;28;19928;-96
2023/10/15 02:42:04;;;;;;;;;;;6.80;99.90;;;;;;4985365;28;19998;-95
2023/10/15 02:44:32;;;;;;;;;;;6.70;99.90;;;;;;4997167;28;20358;-95
2023/10/15 02:47:07;;;;;;;;;;;6.70;99.90;;;;;;5035957;28;19932;-95
2023/10/15 02:49:49;;;;;;;;;;;6.70;99.90;;;;;;5019610;28;19917;-95
2023/10/15 02:52:19;;;;;;;;;;;6.70;99.90;;;;;;5002951;28;19982;-94
2023/10/15 02:54:45;;;;;;;;;;;6.70;99.90;;;;;;5010725;28;19916;-95
2023/10/15 02:57:17;;;;;;;;;;;6.80;99.90;;;;;;5006723;28;19925;-94
2023/10/15 02:59:52;;;;;;;;;;;6.80;99.90;;;;;;5002827;28;19921;-95
2023/10/15 03:02:19;;;;;;;;;;;6.80;99.90;;;;;;5002965;28;19921;-95
2023/10/15 03:05:18;;;;;;;;;;;6.90;99.90;;;;;;5000310;28;19924;-95
2023/10/15 03:07:39;;;;;;;;;;;6.90;99.90;;;;;;5031185;28;19928;-94
2023/10/15 03:10:12;;;;;;;;;;;6.90;99.90;;;;;;5003031;28;19916;-90
2023/10/15 03:12:43;;;;;;;;;;;7.00;99.90;;;;;;5018684;28;19917;-93
2023/10/15 03:15:14;;;;;;;;;;;7.00;99.90;;;;;;5002669;28;19923;-93
2023/10/15 03:17:43;;;;;;;;;;;7.10;99.90;;;;;;5012572;28;19923;-93
2023/10/15 03:22:44;;;;;;;;;;;7.00;99.90;;;;;;5034899;28;19916;-92
2023/10/15 03:25:16;;;;;;;;;;;6.90;99.90;;;;;;5025305;28;19917;-93
2023/10/15 03:27:46;;;;;;;;;;;6.80;99.90;;;;;;5018944;28;19978;-93
2023/10/15 03:30:13;;;;;;;;;;;6.90;99.90;;;;;;5021549;28;19916;-93
2023/10/15 03:32:44;;;;;;;;;;;6.90;99.90;;;;;;5013380;28;19917;-92
2023/10/15 03:35:16;;;;;;;;;;;6.80;99.90;;;;;;5006331;28;19923;-96
2023/10/15 03:37:46;;;;;;;;;;;6.90;99.90;;;;;;5025470;28;19916;-95
2023/10/15 03:40:29;;;;;;;;;;;6.90;99.90;;;;;;5018290;28;19927;-92
2023/10/15 03:43:00;;;;;;;;;;;6.90;99.90;;;;;;5035784;28;19917;-92
2023/10/15 03:45:29;;;;;;;;;;;6.90;99.90;;;;;;5019826;28;19917;-94
2023/10/15 03:47:54;;;;;;;;;;;6.90;99.90;;;;;;5008626;28;19917;-94
2023/10/15 03:50:28;;;;;;;;;;;6.90;99.90;;;;;;5011307;28;19942;-94
2023/10/15 03:52:56;;;;;;;;;;;6.80;99.90;;;;;;5027555;28;19924;-96
2023/10/15 03:55:21;;;;;;;;;;;6.80;99.90;;;;;;5027122;28;19924;-94
2023/10/15 03:57:51;;;;;;;;;;;6.80;99.90;;;;;;5028958;28;19917;-96
2023/10/15 04:00:34;;;;;;;;;;;6.80;99.90;;;;;;5027579;28;19982;-96
2023/10/15 04:05:28;;;;;;;;;;;6.80;99.90;;;;;;5047274;28;19916;-96
2023/10/15 04:07:54;;;;;;;;;;;6.90;99.90;;;;;;5006062;28;19925;-94
2023/10/15 04:10:23;;;;;;;;;;;6.90;99.90;;;;;;5022817;28;19923;-96
2023/10/15 04:12:49;;;;;;;;;;;6.70;99.90;;;;;;5003980;28;20261;-95
2023/10/15 04:15:16;;;;;;;;;;;6.80;99.90;;;;;;5036805;28;19972;-96
2023/10/15 04:17:44;;;;;;;;;;;6.80;99.90;;;;;;5008053;28;19928;-95
2023/10/15 04:20:13;;;;;;;;;;;6.90;99.90;;;;;;5045633;28;19920;-96
2023/10/15 04:22:44;;;;;;;;;;;6.80;99.90;;;;;;5046268;28;19931;-95
2023/10/15 04:25:32;;;;;;;;;;;6.80;99.90;;;;;;5028458;28;19916;-96
2023/10/15 04:27:56;;;;;;;;;;;6.80;99.90;;;;;;5060641;28;19916;-96
2023/10/15 04:30:23;;;;;;;;;;;6.80;99.90;;;;;;5026395;28;20347;-95
2023/10/15 04:32:49;;;;;;;;;;;6.80;99.90;;;;;;5042272;28;19917;-95
2023/10/15 04:35:48;;;;;;;;;;;6.80;99.90;;;;;;5025659;28;19916;-94
2023/10/15 04:38:10;;;;;;;;;;;6.70;99.90;;;;;;5054851;28;19992;-95
2023/10/15 04:43:25;;;;;;;;;;;6.60;99.90;;;;;;5059322;28;20024;-93
2023/10/15 04:45:51;;;;;;;;;;;6.60;99.90;;;;;;5034987;28;20291;-95
2023/10/15 04:48:25;;;;;;;;;;;6.60;99.90;;;;;;5005480;28;19916;-95
2023/10/15 04:50:51;;;;;;;;;;;6.60;99.90;;;;;;5034801;28;19917;-95
2023/10/15 04:55:47;;;;;;;;;;;6.60;99.90;;;;;;5034563;28;19916;-92
2023/10/15 04:58:13;;;;;;;;;;;6.60;99.90;;;;;;5028668;28;19927;-95
2023/10/15 05:00:39;;;;;;;;;;;6.60;99.90;;;;;;5020442;28;19999;-93
2023/10/15 05:03:05;;;;;;;;;;;6.60;99.90;;;;;;5021978;28;20373;-91
2023/10/15 05:05:31;;;;;;;;;;;6.60;99.90;;;;;;5007630;28;20015;-96
2023/10/15 05:08:00;;;;;;;;;;;6.60;99.90;;;;;;5041412;28;20371;-93
2023/10/15 05:10:29;;;;;;;;;;;6.70;99.90;;;;;;5023223;28;20375;-94
2023/10/15 05:12:55;;;;;;;;;;;6.70;99.90;;;;;;5024592;28;19924;-96
2023/10/15 05:15:21;;;;;;;;;;;6.80;99.90;;;;;;5006347;28;20009;-94
2023/10/15 05:17:47;;;;;;;;;;;6.00;99.90;;;;;;5006153;28;19972;-94
2023/10/15 05:20:13;;;;;;;;;;;6.70;99.90;;;;;;5018421;28;19927;-94
2023/10/15 05:22:39;;;;;;;;;;;6.70;99.90;;;;;;5012502;28;19916;-94
2023/10/15 05:25:05;;;;;;;;;;;6.70;99.90;;;;;;5033546;28;19916;-94
2023/10/15 05:27:32;;;;;;;;;;;6.70;99.90;;;;;;5002916;28;19916;-94
2023/10/15 05:29:58;;;;;;;;;;;6.70;99.90;;;;;;5019295;28;19979;-94
2023/10/15 05:32:24;;;;;;;;;;;6.70;99.90;;;;;;5010244;28;20347;-95
2023/10/15 05:34:50;;;;;;;;;;;6.70;99.90;;;;;;5033453;28;19931;-94
2023/10/15 05:37:17;;;;;;;;;;;6.80;99.90;;;;;;5036137;28;19921;-96
2023/10/15 05:39:42;;;;;;;;;;;6.80;99.90;;;;;;5022271;28;19928;-93
2023/10/15 05:42:08;;;;;;;;;;;6.80;99.90;;;;;;5018343;28;20257;-95
2023/10/15 05:44:34;;;;;;;;;;;6.80;99.90;;;;;;5020175;28;20420;-92
2023/10/15 05:47:00;;;;;;;;;;;6.80;99.90;;;;;;5020569;28;19920;-95
2023/10/15 05:49:26;;;;;;;;;;;6.90;99.90;;;;;;5003578;28;19967;-93
2023/10/15 05:51:52;;;;;;;;;;;6.90;99.90;;;;;;5003397;28;19917;-95
2023/10/15 05:54:17;;;;;;;;;;;6.90;99.90;;;;;;5012285;28;20051;-91
2023/10/15 05:56:43;;;;;;;;;;;6.90;99.90;;;;;;5036078;28;19959;-95
2023/10/15 05:59:08;;;;;;;;;;;6.90;99.90;;;;;;5037874;28;20671;-93
2023/10/15 06:01:34;;;;;;;;;;;6.90;99.90;;;;;;5005382;28;19917;-91
2023/10/15 06:04:00;;;;;;;;;;;6.90;99.90;;;;;;5007823;28;20157;-96
2023/10/15 06:06:25;;;;;;;;;;;6.90;99.90;;;;;;5020414;28;19965;-92
2023/10/15 06:08:53;;;;;;;;;;;6.90;99.90;;;;;;5029508;28;19916;-96
2023/10/15 06:11:19;;;;;;;;;;;6.90;99.90;;;;;;5038456;28;19916;-91
2023/10/15 06:13:45;;;;;;;;;;;6.90;99.90;;;;;;5026364;28;19916;-92
2023/10/15 06:16:10;;;;;;;;;;;6.80;99.90;;;;;;5003852;28;19920;-93
2023/10/15 06:18:36;;;;;;;;;;;6.80;99.90;;;;;;5011874;28;19933;-93
2023/10/15 06:21:02;;;;;;;;;;;6.80;99.90;;;;;;5017915;28;19920;-92
2023/10/15 06:23:27;;;;;;;;;;;6.20;99.90;;;;;;5029017;28;19995;-93
2023/10/15 06:25:53;;;;;;;;;;;6.80;99.90;;;;;;5015726;28;19917;-96
2023/10/15 06:28:20;;;;;;;;;;;5.40;99.90;;;;;;5030945;28;19921;-96
2023/10/15 06:30:46;;;;;;;;;;;5.60;99.90;;;;;;5030069;28;19925;-92
2023/10/15 06:33:12;;;;;;;;;;;6.80;99.90;;;;;;5005617;28;19917;-95
2023/10/15 06:35:40;;;;;;;;;;;6.80;99.90;;;;;;5023263;28;19921;-93
2023/10/15 06:38:05;;;;;;;;;;;6.70;99.90;;;;;;5006617;28;19920;-94
2023/10/15 06:40:31;;;;;;;;;;;6.70;99.90;;;;;;5023535;28;19917;-95
2023/10/15 06:43:00;;;;;;;;;;;6.60;99.90;;;;;;5023966;28;19932;-94
2023/10/15 06:45:29;;;;;;;;;;;6.60;99.90;;;;;;5023559;28;19917;-94
2023/10/15 06:47:55;;;;;;;;;;;6.60;99.90;;;;;;5027592;28;19923;-94
2023/10/15 06:50:24;;;;;;;;;;;6.60;99.90;;;;;;5027126;28;20279;-94
2023/10/15 06:52:49;;;;;;;;;;;6.60;99.90;;;;;;5028932;28;19921;-96
2023/10/15 06:55:19;;;;;;;;;;;6.70;99.90;;;;;;5009026;28;19924;-96
2023/10/15 06:57:46;;;;;;;;;;;6.70;99.90;;;;;;5023699;28;20352;-96
2023/10/15 07:00:21;;;;;;;;;;;6.70;99.90;;;;;;5024209;28;19923;-96
2023/10/15 07:02:49;;;;;;;;;;;7.30;99.90;;;;;;5024167;28;19970;-96
2023/10/15 07:05:20;;;;;;;;;;;5.90;99.90;;;;;;5024759;28;19943;-96
2023/10/15 07:07:46;;;;;;;;;;;6.80;99.90;;;;;;5024412;28;19960;-94
2023/10/15 07:10:15;;;;;;;;;;;7.00;99.90;;;;;;5023317;28;19920;-95
2023/10/15 07:12:45;;;;;;;;;;;7.00;99.90;;;;;;5016544;28;19920;-96
2023/10/15 07:15:11;;;;;;;;;;;7.10;99.90;;;;;;5039281;28;20367;-96
2023/10/15 07:17:38;;;;;;;;;;;7.20;99.90;;;;;;5020939;28;19923;-92
2023/10/15 07:20:21;;;;;;;;;;;7.20;99.90;;;;;;5007358;28;19921;-91
2023/10/15 07:22:48;;;;;;;;;;;7.20;99.90;;;;;;5043903;28;19917;-95
2023/10/15 07:25:27;;;;;;;;;;;7.10;99.90;;;;;;5034850;28;19923;-95
2023/10/15 07:27:54;;;;;;;;;;;7.10;99.90;;;;;;5006797;28;19917;-96
2023/10/15 07:30:20;;;;;;;;;;;7.10;99.90;;;;;;5011233;28;19927;-95
2023/10/15 07:32:45;;;;;;;;;;;7.10;99.90;;;;;;4995514;28;19960;-95
2023/10/15 07:35:12;;;;;;;;;;;7.10;99.90;;;;;;5022449;28;20012;-95
2023/10/15 07:37:39;;;;;;;;;;;7.10;99.90;;;;;;5049742;28;19920;-96
2023/10/15 07:40:17;;;;;;;;;;;7.10;99.90;;;;;;5019956;28;19917;-96
2023/10/15 07:42:48;;;;;;;;;;;7.10;99.90;;;;;;5045167;28;19917;-94
2023/10/15 07:45:14;;;;;;;;;;;7.20;99.90;;;;;;5045744;28;20026;-95
2023/10/15 07:47:40;;;;;;;;;;;7.20;99.90;;;;;;5040860;28;20417;-95
2023/10/15 07:50:18;;;;;;;;;;;7.20;99.90;;;;;;5003216;28;19956;-94
2023/10/15 07:52:44;;;;;;;;;;;7.10;99.90;;;;;;5007138;28;19916;-92
2023/10/15 07:55:13;;;;;;;;;;;7.20;99.90;;;;;;5001611;28;19980;-95
2023/10/15 07:57:39;;;;;;;;;;;7.10;99.90;;;;;;5005763;28;19980;-94
2023/10/15 08:00:09;;;;;;;;;;;7.20;99.90;;;;;;5017234;28;20004;-94
2023/10/15 08:02:39;;;;;;;;;;;7.20;99.90;;;;;;5021947;28;19947;-94
2023/10/15 08:05:04;;;;;;;;;;;7.20;99.90;;;;;;5021058;28;19970;-95
2023/10/15 08:07:30;;;;;;;;;;;7.30;99.90;;;;;;5002566;28;19928;-94
2023/10/15 08:09:56;;;;;;;;;;;7.50;99.90;;;;;;5008456;28;20280;-93
2023/10/15 08:12:21;;;;;;;;;;;7.70;99.90;;;;;;5000196;28;19975;-95
2023/10/15 08:14:47;;;;;;;;;;;7.90;99.90;;;;;;5004087;28;19982;-94
2023/10/15 08:17:13;;;;;;;;;;;8.10;99.90;;;;;;5021035;28;20015;-92
2023/10/15 08:19:39;;;;;;;;;;;8.40;99.90;;;;;;5032624;28;19920;-92
2023/10/15 08:22:05;;;;;;;;;;;8.40;99.90;;;;;;5038117;28;19928;-95
2023/10/15 08:24:31;;;;;;;;;;;8.50;99.90;;;;;;5021409;28;19920;-95
2023/10/15 08:26:56;;;;;;;;;;;8.50;99.90;;;;;;5035935;28;20035;-94
2023/10/15 08:29:22;;;;;;;;;;;8.70;99.90;;;;;;5019528;28;20266;-93
2023/10/15 08:31:48;;;;;;;;;;;8.80;99.90;;;;;;5023147;28;19926;-94
2023/10/15 08:34:14;;;;;;;;;;;8.90;99.90;;;;;;5058916;28;20279;-94
2023/10/15 08:36:39;;;;;;;;;;;8.90;99.90;;;;;;5034267;28;19929;-89
2023/10/15 08:39:06;;;;;;;;;;;9.30;99.90;;;;;;5037210;28;19921;-92
2023/10/15 08:41:35;;;;;;;;;;;8.20;99.90;;;;;;5063519;28;19974;-94
2023/10/15 08:44:01;;;;;;;;;;;8.00;99.90;;;;;;5050271;28;20011;-90
2023/10/15 08:46:27;;;;;;;;;;;7.80;99.90;;;;;;5017349;28;19952;-91
2023/10/15 08:48:58;;;;;;;;;;;7.50;99.90;;;;;;5025378;28;19924;-92
2023/10/15 08:51:24;;;;;;;;;;;7.20;99.90;;;;;;5032674;28;20588;-94
2023/10/15 08:53:50;;;;;;;;;;;7.10;99.90;;;;;;5042340;28;20011;-94
2023/10/15 08:56:22;;;;;;;;;;;6.90;99.90;;;;;;5037397;28;19916;-91
2023/10/15 08:58:54;;;;;;;;;;;7.00;99.90;;;;;;5021913;28;19927;-93
2023/10/15 09:01:20;;;;;;;;;;;5.40;99.90;;;;;;5014891;28;19923;-95
2023/10/15 09:03:46;;;;;;;;;;;6.80;99.90;;;;;;5031345;28;19920;-93
2023/10/15 09:06:15;;;;;;;;;;;5.50;99.90;;;;;;5039560;28;20062;-96
2023/10/15 09:08:43;;;;;;;;;;;6.90;99.90;;;;;;5038280;28;20287;-96
2023/10/15 09:11:10;;;;;;;;;;;7.10;99.90;;;;;;5019500;28;19995;-93
2023/10/15 09:13:37;;;;;;;;;;;7.10;99.90;;;;;;5043538;28;19916;-94
2023/10/15 09:16:07;;;;;;;;;;;7.10;99.90;;;;;;5059056;28;19917;-92
2023/10/15 09:18:35;;;;;;;;;;;7.20;99.90;;;;;;5040094;28;20387;-93
2023/10/15 09:21:03;;;;;;;;;;;7.20;99.90;;;;;;5028390;28;19924;-94
2023/10/15 09:23:36;;;;;;;;;;;7.30;99.90;;;;;;5040705;28;19916;-93
2023/10/15 09:26:03;;;;;;;;;;;7.30;99.90;;;;;;5041716;28;19923;-95
2023/10/15 09:28:29;;;;;;;;;;;7.10;99.90;;;;;;5057714;28;19916;-94
2023/10/15 09:31:02;;;;;;;;;;;7.30;99.90;;;;;;5039754;28;19939;-95
2023/10/15 09:33:29;;;;;;;;;;;7.70;99.90;;;;;;5043698;28;20394;-94
2023/10/15 09:35:58;;;;;;;;;;;;;;;;;;5029555;28;20005;-95
2023/10/15 09:38:24;;;;;;;;;;;;;;;;;;5060603;28;19916;-93
2023/10/15 09:40:55;;;;;;;;;;;9.70;99.90;;;;;;5056711;28;19931;-95
2023/10/15 09:43:24;;;;;;;;;;;8.90;99.90;;;;;;5053742;28;19924;-94
2023/10/15 09:45:50;;;;;;;;;;;9.10;99.90;;;;;;5054730;28;19920;-92
2023/10/15 09:48:16;;;;;;;;;;;8.90;99.90;;;;;;5017678;28;19940;-90
2023/10/15 09:50:45;;;;;;;;;;;9.00;99.90;;;;;;5047720;28;19917;-94
2023/10/15 09:53:12;;;;;;;;;;;9.20;99.90;;;;;;5043177;28;19916;-91
2023/10/15 09:55:40;;;;;;;;;;;9.30;99.90;;;;;;5038644;28;19925;-90
2023/10/15 09:58:05;;;;;;;;;;;9.50;99.90;;;;;;5025039;28;20290;-94
2023/10/15 10:00:46;;;;;;;;;;;9.70;99.90;;;;;;5023424;28;20004;-95
2023/10/15 10:03:25;;;;;;;;;;;9.80;99.90;;;;;;5046665;28;19923;-94
2023/10/15 10:05:58;;;;;;;;;;;10.00;99.90;;;;;;5014818;28;19927;-92
2023/10/15 10:08:36;;;;;;;;;;;10.10;99.90;;;;;;5054609;28;20000;-90
2023/10/15 10:11:08;;;;;;;;;;;10.20;99.90;;;;;;5055934;28;19917;-90
2023/10/15 10:13:39;;;;;;;;;;;10.20;99.90;;;;;;5039093;28;20375;-90
2023/10/15 10:16:09;;;;;;;;;;;10.20;99.90;;;;;;5039522;28;19939;-93
2023/10/15 10:18:39;;;;;;;;;;;10.20;99.90;;;;;;5039213;28;19967;-88
2023/10/15 10:21:37;;;;;;;;;;;10.10;99.90;;;;;;5040030;28;19924;-93
2023/10/15 10:24:18;;;;;;;;;;;9.00;99.90;;;;;;4977131;28;19918;-96
2023/10/15 10:27:07;;;;;;;;;;;9.10;99.90;;;;;;4946598;28;19933;-95
2023/10/15 10:29:34;;;;;;;;;;;8.80;99.90;;;;;;4962061;28;19924;-94
2023/10/15 10:31:59;;;;;;;;;;;8.50;99.90;;;;;;4991315;28;19924;-93
2023/10/15 10:34:29;;;;;;;;;;;8.20;99.90;;;;;;4963761;28;20018;-93
2023/10/15 10:36:55;;;;;;;;;;;8.20;99.90;;;;;;5050562;28;19920;-94
2023/10/15 10:39:26;;;;;;;;;;;8.00;99.90;;;;;;5035658;28;19921;-93
2023/10/15 10:41:59;;;;;;;;;;;8.10;99.90;;;;;;5025131;28;20002;-94
2023/10/15 10:44:40;;;;;;;;;;;8.10;99.90;;;;;;5032027;28;20018;-92
2023/10/15 10:47:22;;;;;;;;;;;8.20;99.90;;;;;;5024314;28;19963;-93
2023/10/15 10:49:55;;;;;;;;;;;8.10;99.90;;;;;;5041201;28;19924;-90
2023/10/15 10:52:33;;;;;;;;;;;8.20;99.90;;;;;;5042464;28;19920;-90
2023/10/15 10:55:19;;;;;;;;;;;8.30;99.90;;;;;;5022595;28;19917;-90
2023/10/15 10:57:45;;;;;;;;;;;8.00;99.90;;;;;;5028157;28;19917;-93
2023/10/15 11:00:12;;;;;;;;;;;9.30;99.90;;;;;;5043328;28;19920;-94
2023/10/15 11:02:37;;;;;;;;;;;9.00;99.90;;;;;;5040164;28;19928;-90
2023/10/15 11:05:04;;;;;;;;;;;9.10;99.90;;;;;;5043410;28;19962;-90
2023/10/15 11:07:36;;;;;;;;;;;9.50;99.90;;;;;;5032363;28;20402;-92
2023/10/15 11:10:05;;;;;;;;;;;9.70;99.90;;;;;;5042401;28;19941;-92
2023/10/15 11:12:31;;;;;;;;;;;9.80;99.90;;;;;;5034886;28;19916;-89
2023/10/15 11:14:57;;;;;;;;;;;9.90;99.90;;;;;;5023604;28;19943;-94
2023/10/15 11:17:23;;;;;;;;;;;9.90;99.90;;;;;;5048925;28;19927;-90
2023/10/15 11:19:48;;;;;;;;;;;10.00;99.90;;;;;;5028343;28;19924;-91
2023/10/15 11:22:14;;;;;;;;;;;10.10;99.90;;;;;;5003808;28;20350;-89
2023/10/15 11:24:40;;;;;;;;;;;;;;;;;;5003524;28;19928;-89
2023/10/15 11:27:11;;;;;;;;;;;10.30;99.90;;;;;;5022715;28;19921;-91
2023/10/15 11:29:37;;;;;;;;;;;10.40;99.90;;;;;;5032394;28;20007;-90
2023/10/15 11:32:06;;;;;;;;;;;10.50;99.90;;;;;;5023223;28;19966;-89
2023/10/15 11:34:33;;;;;;;;;;;10.50;99.90;;;;;;5006279;28;19972;-90
2023/10/15 11:37:02;;;;;;;;;;;10.40;99.90;;;;;;5014363;28;19916;-94
2023/10/15 11:39:37;;;;;;;;;;;10.40;99.90;;;;;;5005041;28;20287;-94
2023/10/15 11:42:03;;;;;;;;;;;10.20;99.90;;;;;;5020427;28;19917;-89
2023/10/15 11:44:33;;;;;;;;;;;10.00;99.90;;;;;;5031816;28;19923;-92
2023/10/15 11:47:22;;;;;;;;;;;10.10;99.90;;;;;;5025611;28;19983;-93
2023/10/15 11:49:50;;;;;;;;;;;10.20;99.90;;;;;;5022759;28;19916;-92
2023/10/15 11:52:18;;;;;;;;;;;10.10;99.90;;;;;;5006820;28;19956;-91
2023/10/15 11:54:49;;;;;;;;;;;10.20;99.90;;;;;;5007507;28;19924;-95
2023/10/15 11:57:26;;;;;;;;;;;10.40;99.90;;;;;;5007059;28;19917;-93
2023/10/15 11:59:52;;;;;;;;;;;10.50;99.90;;;;;;5023313;28;19920;-92
2023/10/15 12:02:17;;;;;;;;;;;10.50;99.90;;;;;;5011425;28;19954;-95
2023/10/15 12:04:43;;;;;;;;;;;10.50;99.90;;;;;;5022314;28;19916;-87
2023/10/15 12:07:16;;;;;;;;;;;10.70;99.90;;;;;;5010945;28;20455;-90
2023/10/15 12:09:44;;;;;;;;;;;10.80;99.90;;;;;;5036949;28;19917;-95
2023/10/15 12:12:11;;;;;;;;;;;10.90;99.90;;;;;;5014797;28;19923;-92
2023/10/15 12:14:37;;;;;;;;;;;10.90;99.90;;;;;;5031846;28;19923;-92
2023/10/15 12:17:04;;;;;;;;;;;10.60;99.90;;;;;;5021772;28;19917;-94
2023/10/15 12:19:30;;;;;;;;;;;10.40;99.90;;;;;;5031258;28;19935;-94
2023/10/15 12:21:58;;;;;;;;;;;10.30;99.90;;;;;;5045234;28;19916;-95
2023/10/15 12:24:25;;;;;;;;;;;10.20;99.90;;;;;;5047640;28;19916;-89
2023/10/15 12:26:51;;;;;;;;;;;10.30;99.90;;;;;;5047118;28;19920;-90
2023/10/15 12:29:17;;;;;;;;;;;10.00;99.90;;;;;;5040951;28;19917;-90
2023/10/15 12:31:43;;;;;;;;;;;10.40;99.90;;;;;;5030469;28;20003;-92
2023/10/15 12:34:11;;;;;;;;;;;10.20;99.90;;;;;;5040363;28;19916;-91
2023/10/15 12:36:38;;;;;;;;;;;10.10;99.90;;;;;;5044757;28;19970;-95
2023/10/15 12:39:05;;;;;;;;;;;10.00;99.90;;;;;;5055445;28;20298;-94
2023/10/15 12:41:31;;;;;;;;;;;9.90;99.90;;;;;;5040667;28;19920;-92
2023/10/15 12:44:00;;;;;;;;;;;9.90;99.90;;;;;;5020969;28;19917;-90
2023/10/15 12:46:27;;;;;;;;;;;9.80;99.90;;;;;;5021893;28;20054;-91
2023/10/15 12:48:52;;;;;;;;;;;9.30;99.90;;;;;;5054555;28;19966;-90
2023/10/15 12:51:19;;;;;;;;;;;9.00;99.90;;;;;;5024646;28;20313;-93
2023/10/15 12:53:46;;;;;;;;;;;7.70;99.90;;;;;;5040896;28;19977;-94
2023/10/15 12:56:12;;;;;;;;;;;8.80;99.90;;;;;;5042766;28;20336;-94
2023/10/15 12:58:38;;;;;;;;;;;8.70;99.90;;;;;;5041055;28;19970;-93
2023/10/15 13:01:05;;;;;;;;;;;8.60;99.90;;;;;;5030800;28;20346;-92
2023/10/15 13:03:32;;;;;;;;;;;8.80;99.90;;;;;;5025627;28;20011;-93
2023/10/15 13:05:58;;;;;;;;;;;8.70;99.90;;;;;;5029326;28;20200;-95
2023/10/15 13:08:23;;;;;;;;;;;9.10;99.90;;;;;;5024712;28;19917;-91
2023/10/15 13:10:49;;;;;;;;;;;9.20;99.90;;;;;;5041227;28;19923;-93
2023/10/15 13:13:15;;;;;;;;;;;9.30;99.90;;;;;;5039797;28;19917;-88
2023/10/15 13:15:41;;;;;;;;;;;9.40;99.90;;;;;;5045599;28;19928;-92
2023/10/15 13:18:09;;;;;;;;;;;9.50;99.90;;;;;;5057283;28;19924;-92
2023/10/15 13:20:35;;;;;;;;;;;9.60;99.90;;;;;;5030404;28;19921;-93
2023/10/15 13:23:01;;;;;;;;;;;9.80;99.90;;;;;;5023713;28;20301;-92
2023/10/15 13:25:27;;;;;;;;;;;10.00;99.90;;;;;;5022693;28;20011;-90
2023/10/15 13:27:53;;;;;;;;;;;10.10;99.90;;;;;;5039505;28;20368;-90
2023/10/15 13:30:18;;;;;;;;;;;10.20;99.90;;;;;;5037271;28;19922;-90
2023/10/15 13:32:45;;;;;;;;;;;10.20;99.90;;;;;;5034313;28;19980;-90
2023/10/15 13:35:12;;;;;;;;;;;10.20;99.90;;;;;;5057166;28;20347;-89
2023/10/15 13:37:38;;;;;;;;;;;10.20;99.90;;;;;;5022955;28;20349;-92
2023/10/15 13:40:09;;;;;;;;;;;10.20;99.90;;;;;;5021097;28;20482;-90
2023/10/15 13:42:38;;;;;;;;;;;10.30;99.90;;;;;;5047583;28;19916;-91
2023/10/15 13:45:04;;;;;;;;;;;10.40;99.90;;;;;;5036196;28;19916;-90
2023/10/15 13:47:35;;;;;;;;;;;10.40;99.90;;;;;;5019939;28;20359;-89
2023/10/15 13:50:02;;;;;;;;;;;10.40;99.90;;;;;;5012872;28;20387;-93
2023/10/15 13:52:28;;;;;;;;;;;10.30;99.90;;;;;;5031120;28;19939;-93
2023/10/15 13:55:01;;;;;;;;;;;10.30;99.90;;;;;;5029248;28;19916;-93
2023/10/15 13:57:42;;;;;;;;;;;10.30;99.90;;;;;;5025724;28;19959;-95
2023/10/15 14:00:15;;;;;;;;;;;10.20;99.90;;;;;;5039108;28;19925;-91
2023/10/15 14:02:45;;;;;;;;;;;10.20;99.90;;;;;;5022450;28;19916;-92
2023/10/15 14:05:15;;;;;;;;;;;10.20;99.90;;;;;;5039391;28;20370;-94
2023/10/15 14:07:49;;;;;;;;;;;10.30;99.90;;;;;;5037060;28;19924;-94
2023/10/15 14:10:15;;;;;;;;;;;10.30;99.90;;;;;;5061204;28;19923;-93
2023/10/15 14:15:34;;;;;;;;;;;10.40;99.90;;;;;;4996499;28;20393;-93
2023/10/15 14:18:00;;;;;;;;;;;11.10;99.90;;;;;;5042995;28;19923;-90
2023/10/15 14:20:26;;;;;;;;;;;10.20;99.90;;;;;;5039879;28;19972;-95
2023/10/15 14:22:54;;;;;;;;;;;10.10;99.90;;;;;;5005735;28;20322;-95
2023/10/15 14:25:20;;;;;;;;;;;10.20;99.90;;;;;;5000964;28;19923;-90
2023/10/15 14:27:45;;;;;;;;;;;10.20;99.90;;;;;;4997927;28;19916;-92
2023/10/15 14:30:11;;;;;;;;;;;10.30;99.90;;;;;;5023417;28;20386;-93
2023/10/15 14:32:37;;;;;;;;;;;10.20;99.90;;;;;;5018222;28;19920;-92
2023/10/15 14:35:04;;;;;;;;;;;10.40;99.90;;;;;;5019001;28;19969;-90
2023/10/15 14:37:30;;;;;;;;;;;10.30;99.90;;;;;;5018512;28;20363;-89
2023/10/15 14:39:56;;;;;;;;;;;10.30;99.90;;;;;;5005039;28;20277;-96
2023/10/15 14:42:21;;;;;;;;;;;10.30;99.90;;;;;;5004603;28;19959;-93
2023/10/15 14:44:47;;;;;;;;;;;10.20;99.90;;;;;;5002650;28;19916;-96
2023/10/15 14:47:13;;;;;;;;;;;10.20;99.90;;;;;;5018495;28;19921;-90
2023/10/15 14:49:39;;;;;;;;;;;10.20;99.90;;;;;;5002111;28;19924;-91
2023/10/15 14:52:04;;;;;;;;;;;10.20;99.90;;;;;;5019536;28;19956;-90
2023/10/15 14:54:31;;;;;;;;;;;;;;;;;;5019034;28;19920;-93
2023/10/15 14:56:56;;;;;;;;;;;10.10;99.90;;;;;;5019753;28;19924;-92
2023/10/15 14:59:22;;;;;;;;;;;10.10;99.90;;;;;;5000617;28;19972;-92